sensor_id;sensor_type;location;lat;lon;timestamp;P1;durP1;ratioP1;P2;durP2;ratioP2
22814;SDS011;11574;51.058;13.712;2023-05-16T00:03:57;10.23;;;6.67;;
22814;SDS011;11574;51.058;13.712;2023-05-16T00:08:59;9.97;;;7.20;;
22814;SDS011;11574;51.058;13.712;2023-05-16T00:14:03;11.37;;;5.83;;
22814;SDS011;11574;51.058;13.712;2023-05-16T00:19:05;9.80;;;6.53;;
22814;SDS011;11574;51.058;13.712;2023-05-16T00:24:07;9.60;;;6.93;;
22814;SDS011;11574;51.058;13.712;2023-05-16T00:29:11;11.27;;;6.73;;
22814;SDS011;11574;51.058;13.712;2023-05-16T00:34:13;9.83;;;7.17;;
22814;SDS011;11574;51.058;13.712;2023-05-16T00:39:16;9.43;;;6.90;;
22814;SDS011;11574;51.058;13.712;2023-05-16T00:44:19;10.37;;;7.37;;
22814;SDS011;11574;51.058;13.712;2023-05-16T00:49:21;14.63;;;7.37;;
22814;SDS011;11574;51.058;13.712;2023-05-16T00:54:24;14.13;;;7.30;;
22814;SDS011;11574;51.058;13.712;2023-05-16T00:59:29;8.63;;;6.57;;
22814;SDS011;11574;51.058;13.712;2023-05-16T01:04:31;10.63;;;7.17;;
22814;SDS011;11574;51.058;13.712;2023-05-16T01:09:34;11.67;;;7.20;;
22814;SDS011;11574;51.058;13.712;2023-05-16T01:14:41;15.33;;;7.37;;
22814;SDS011;11574;51.058;13.712;2023-05-16T01:19:49;8.87;;;6.97;;
22814;SDS011;11574;51.058;13.712;2023-05-16T01:25:04;18.13;;;8.30;;
22814;SDS011;11574;51.058;13.712;2023-05-16T01:30:14;11.57;;;7.30;;
22814;SDS011;11574;51.058;13.712;2023-05-16T01:35:16;11.10;;;7.00;;
22814;SDS011;11574;51.058;13.712;2023-05-16T01:40:21;7.80;;;5.60;;
22814;SDS011;11574;51.058;13.712;2023-05-16T01:45:27;11.67;;;7.27;;
22814;SDS011;11574;51.058;13.712;2023-05-16T01:50:31;11.67;;;6.50;;
22814;SDS011;11574;51.058;13.712;2023-05-16T01:55:35;13.00;;;7.27;;
22814;SDS011;11574;51.058;13.712;2023-05-16T02:00:40;9.07;;;7.37;;
22814;SDS011;11574;51.058;13.712;2023-05-16T02:05:42;13.80;;;7.50;;
22814;SDS011;11574;51.058;13.712;2023-05-16T02:10:44;10.67;;;7.50;;
22814;SDS011;11574;51.058;13.712;2023-05-16T02:15:48;12.17;;;7.47;;
22814;SDS011;11574;51.058;13.712;2023-05-16T02:20:50;12.87;;;8.60;;
22814;SDS011;11574;51.058;13.712;2023-05-16T02:25:53;10.90;;;7.80;;
22814;SDS011;11574;51.058;13.712;2023-05-16T02:30:57;12.37;;;8.00;;
22814;SDS011;11574;51.058;13.712;2023-05-16T02:35:59;11.87;;;8.30;;
22814;SDS011;11574;51.058;13.712;2023-05-16T02:41:01;10.60;;;8.40;;
22814;SDS011;11574;51.058;13.712;2023-05-16T02:46:18;16.03;;;8.83;;
22814;SDS011;11574;51.058;13.712;2023-05-16T02:51:21;12.93;;;8.20;;
22814;SDS011;11574;51.058;13.712;2023-05-16T02:56:23;11.30;;;9.17;;
22814;SDS011;11574;51.058;13.712;2023-05-16T03:01:28;11.13;;;8.20;;
22814;SDS011;11574;51.058;13.712;2023-05-16T03:06:30;9.27;;;7.67;;
22814;SDS011;11574;51.058;13.712;2023-05-16T03:11:32;11.77;;;9.63;;
22814;SDS011;11574;51.058;13.712;2023-05-16T03:16:35;12.97;;;9.63;;
22814;SDS011;11574;51.058;13.712;2023-05-16T03:21:38;13.80;;;9.77;;
22814;SDS011;11574;51.058;13.712;2023-05-16T03:26:40;13.27;;;9.23;;
22814;SDS011;11574;51.058;13.712;2023-05-16T03:31:44;14.77;;;10.10;;
22814;SDS011;11574;51.058;13.712;2023-05-16T03:36:46;14.63;;;9.90;;
22814;SDS011;11574;51.058;13.712;2023-05-16T03:41:49;13.57;;;9.77;;
22814;SDS011;11574;51.058;13.712;2023-05-16T03:46:52;16.40;;;9.17;;
22814;SDS011;11574;51.058;13.712;2023-05-16T03:51:55;12.40;;;8.13;;
22814;SDS011;11574;51.058;13.712;2023-05-16T03:56:57;15.23;;;8.67;;
22814;SDS011;11574;51.058;13.712;2023-05-16T04:02:01;12.87;;;9.10;;
22814;SDS011;11574;51.058;13.712;2023-05-16T04:07:03;18.53;;;10.10;;
22814;SDS011;11574;51.058;13.712;2023-05-16T04:12:06;15.63;;;9.40;;
22814;SDS011;11574;51.058;13.712;2023-05-16T04:17:10;12.97;;;9.90;;
22814;SDS011;11574;51.058;13.712;2023-05-16T04:22:12;15.47;;;10.57;;
22814;SDS011;11574;51.058;13.712;2023-05-16T04:27:14;18.43;;;11.07;;
22814;SDS011;11574;51.058;13.712;2023-05-16T04:32:18;20.27;;;9.50;;
22814;SDS011;11574;51.058;13.712;2023-05-16T04:37:20;15.07;;;10.27;;
22814;SDS011;11574;51.058;13.712;2023-05-16T04:42:22;16.93;;;10.00;;
22814;SDS011;11574;51.058;13.712;2023-05-16T04:47:26;18.87;;;10.27;;
22814;SDS011;11574;51.058;13.712;2023-05-16T04:52:28;14.20;;;10.43;;
22814;SDS011;11574;51.058;13.712;2023-05-16T04:57:30;13.20;;;10.80;;
22814;SDS011;11574;51.058;13.712;2023-05-16T05:02:34;24.73;;;11.77;;
22814;SDS011;11574;51.058;13.712;2023-05-16T05:07:37;21.17;;;12.47;;
22814;SDS011;11574;51.058;13.712;2023-05-16T05:12:39;20.87;;;13.47;;
22814;SDS011;11574;51.058;13.712;2023-05-16T05:17:43;21.33;;;12.40;;
22814;SDS011;11574;51.058;13.712;2023-05-16T05:22:46;18.47;;;13.03;;
22814;SDS011;11574;51.058;13.712;2023-05-16T05:27:48;19.13;;;13.03;;
22814;SDS011;11574;51.058;13.712;2023-05-16T05:32:51;22.30;;;13.83;;
22814;SDS011;11574;51.058;13.712;2023-05-16T05:37:53;21.67;;;14.43;;
22814;SDS011;11574;51.058;13.712;2023-05-16T05:42:56;22.27;;;15.97;;
22814;SDS011;11574;51.058;13.712;2023-05-16T05:47:59;23.23;;;15.00;;
22814;SDS011;11574;51.058;13.712;2023-05-16T05:53:01;23.57;;;16.07;;
22814;SDS011;11574;51.058;13.712;2023-05-16T05:58:04;25.33;;;15.97;;
22814;SDS011;11574;51.058;13.712;2023-05-16T06:03:07;21.20;;;16.67;;
22814;SDS011;11574;51.058;13.712;2023-05-16T06:08:09;26.07;;;16.70;;
22814;SDS011;11574;51.058;13.712;2023-05-16T06:13:12;22.93;;;17.63;;
22814;SDS011;11574;51.058;13.712;2023-05-16T06:18:15;27.77;;;17.87;;
22814;SDS011;11574;51.058;13.712;2023-05-16T06:23:17;29.07;;;21.87;;
22814;SDS011;11574;51.058;13.712;2023-05-16T06:28:21;34.10;;;22.93;;
22814;SDS011;11574;51.058;13.712;2023-05-16T06:33:25;36.93;;;25.83;;
22814;SDS011;11574;51.058;13.712;2023-05-16T06:38:27;37.50;;;25.60;;
22814;SDS011;11574;51.058;13.712;2023-05-16T06:43:30;35.43;;;24.80;;
22814;SDS011;11574;51.058;13.712;2023-05-16T06:48:33;34.47;;;24.60;;
22814;SDS011;11574;51.058;13.712;2023-05-16T06:53:35;37.10;;;25.73;;
22814;SDS011;11574;51.058;13.712;2023-05-16T06:58:38;30.23;;;22.63;;
22814;SDS011;11574;51.058;13.712;2023-05-16T07:03:41;31.50;;;21.53;;
22814;SDS011;11574;51.058;13.712;2023-05-16T07:08:44;27.97;;;19.80;;
22814;SDS011;11574;51.058;13.712;2023-05-16T07:13:46;31.67;;;20.30;;
22814;SDS011;11574;51.058;13.712;2023-05-16T07:18:50;24.60;;;14.37;;
22814;SDS011;11574;51.058;13.712;2023-05-16T07:23:52;21.70;;;13.97;;
22814;SDS011;11574;51.058;13.712;2023-05-16T07:28:54;20.07;;;13.67;;
22814;SDS011;11574;51.058;13.712;2023-05-16T07:33:58;22.27;;;13.83;;
22814;SDS011;11574;51.058;13.712;2023-05-16T07:39:00;22.67;;;13.87;;
22814;SDS011;11574;51.058;13.712;2023-05-16T07:44:03;19.07;;;13.17;;
22814;SDS011;11574;51.058;13.712;2023-05-16T07:49:06;19.07;;;12.93;;
22814;SDS011;11574;51.058;13.712;2023-05-16T07:54:08;23.57;;;12.97;;
22814;SDS011;11574;51.058;13.712;2023-05-16T07:59:11;18.13;;;12.20;;
22814;SDS011;11574;51.058;13.712;2023-05-16T08:04:14;20.13;;;12.87;;
22814;SDS011;11574;51.058;13.712;2023-05-16T08:09:16;16.07;;;11.73;;
22814;SDS011;11574;51.058;13.712;2023-05-16T08:14:19;28.50;;;11.97;;
22814;SDS011;11574;51.058;13.712;2023-05-16T08:19:23;18.10;;;11.03;;
22814;SDS011;11574;51.058;13.712;2023-05-16T08:24:25;19.27;;;9.83;;
22814;SDS011;11574;51.058;13.712;2023-05-16T08:29:27;16.80;;;10.07;;
22814;SDS011;11574;51.058;13.712;2023-05-16T08:34:32;15.70;;;10.20;;
22814;SDS011;11574;51.058;13.712;2023-05-16T08:39:34;14.67;;;9.20;;
22814;SDS011;11574;51.058;13.712;2023-05-16T08:44:36;21.07;;;9.10;;
22814;SDS011;11574;51.058;13.712;2023-05-16T08:49:40;13.87;;;9.57;;
22814;SDS011;11574;51.058;13.712;2023-05-16T08:54:42;13.20;;;8.50;;
22814;SDS011;11574;51.058;13.712;2023-05-16T08:59:45;15.30;;;9.30;;
22814;SDS011;11574;51.058;13.712;2023-05-16T09:04:48;12.10;;;8.00;;
22814;SDS011;11574;51.058;13.712;2023-05-16T09:09:51;12.13;;;8.70;;
22814;SDS011;11574;51.058;13.712;2023-05-16T09:14:53;15.03;;;8.40;;
22814;SDS011;11574;51.058;13.712;2023-05-16T09:19:57;14.47;;;8.93;;
22814;SDS011;11574;51.058;13.712;2023-05-16T09:24:59;15.33;;;8.27;;
22814;SDS011;11574;51.058;13.712;2023-05-16T09:30:01;17.17;;;7.83;;
22814;SDS011;11574;51.058;13.712;2023-05-16T09:35:06;14.70;;;7.83;;
22814;SDS011;11574;51.058;13.712;2023-05-16T09:40:12;17.07;;;8.63;;
22814;SDS011;11574;51.058;13.712;2023-05-16T09:45:14;12.73;;;7.97;;
22814;SDS011;11574;51.058;13.712;2023-05-16T09:50:19;15.37;;;7.23;;
22814;SDS011;11574;51.058;13.712;2023-05-16T09:55:22;15.90;;;7.53;;
22814;SDS011;11574;51.058;13.712;2023-05-16T10:00:28;12.97;;;7.17;;
22814;SDS011;11574;51.058;13.712;2023-05-16T10:05:32;12.90;;;7.57;;
22814;SDS011;11574;51.058;13.712;2023-05-16T10:10:35;14.30;;;6.73;;
22814;SDS011;11574;51.058;13.712;2023-05-16T10:15:39;12.97;;;7.93;;
22814;SDS011;11574;51.058;13.712;2023-05-16T10:20:44;11.80;;;7.20;;
22814;SDS011;11574;51.058;13.712;2023-05-16T10:25:48;12.83;;;7.00;;
22814;SDS011;11574;51.058;13.712;2023-05-16T10:30:50;10.50;;;7.23;;
22814;SDS011;11574;51.058;13.712;2023-05-16T10:35:54;14.27;;;7.53;;
22814;SDS011;11574;51.058;13.712;2023-05-16T10:40:56;10.23;;;6.67;;
22814;SDS011;11574;51.058;13.712;2023-05-16T10:46:01;9.70;;;6.07;;
22814;SDS011;11574;51.058;13.712;2023-05-16T10:56:27;7.57;;;5.77;;
22814;SDS011;11574;51.058;13.712;2023-05-16T11:01:30;9.97;;;5.20;;
22814;SDS011;11574;51.058;13.712;2023-05-16T11:06:42;15.87;;;5.50;;
22814;SDS011;11574;51.058;13.712;2023-05-16T11:11:45;9.93;;;5.23;;
22814;SDS011;11574;51.058;13.712;2023-05-16T11:16:48;8.47;;;4.80;;
22814;SDS011;11574;51.058;13.712;2023-05-16T11:22:05;6.47;;;4.57;;
22814;SDS011;11574;51.058;13.712;2023-05-16T11:27:08;7.67;;;3.83;;
22814;SDS011;11574;51.058;13.712;2023-05-16T11:32:12;12.67;;;5.60;;
22814;SDS011;11574;51.058;13.712;2023-05-16T11:37:17;9.20;;;4.40;;
22814;SDS011;11574;51.058;13.712;2023-05-16T11:42:20;7.80;;;4.07;;
22814;SDS011;11574;51.058;13.712;2023-05-16T11:47:22;6.60;;;4.00;;
22814;SDS011;11574;51.058;13.712;2023-05-16T11:52:27;6.23;;;3.30;;
22814;SDS011;11574;51.058;13.712;2023-05-16T11:57:31;5.73;;;3.30;;
22814;SDS011;11574;51.058;13.712;2023-05-16T12:02:33;6.70;;;4.10;;
22814;SDS011;11574;51.058;13.712;2023-05-16T12:07:37;7.20;;;3.80;;
22814;SDS011;11574;51.058;13.712;2023-05-16T12:12:40;9.20;;;3.80;;
22814;SDS011;11574;51.058;13.712;2023-05-16T12:17:42;7.90;;;3.50;;
22814;SDS011;11574;51.058;13.712;2023-05-16T12:22:46;6.00;;;3.20;;
22814;SDS011;11574;51.058;13.712;2023-05-16T12:27:49;4.30;;;3.60;;
22814;SDS011;11574;51.058;13.712;2023-05-16T12:32:52;5.87;;;3.80;;
22814;SDS011;11574;51.058;13.712;2023-05-16T12:37:55;8.90;;;3.67;;
22814;SDS011;11574;51.058;13.712;2023-05-16T12:42:57;5.93;;;3.63;;
22814;SDS011;11574;51.058;13.712;2023-05-16T12:48:03;6.30;;;3.17;;
22814;SDS011;11574;51.058;13.712;2023-05-16T12:53:11;5.23;;;3.53;;
22814;SDS011;11574;51.058;13.712;2023-05-16T12:58:13;5.03;;;3.17;;
22814;SDS011;11574;51.058;13.712;2023-05-16T13:03:16;8.07;;;3.57;;
22814;SDS011;11574;51.058;13.712;2023-05-16T13:08:19;6.33;;;3.17;;
22814;SDS011;11574;51.058;13.712;2023-05-16T13:13:22;9.27;;;3.93;;
22814;SDS011;11574;51.058;13.712;2023-05-16T13:18:25;9.03;;;3.20;;
22814;SDS011;11574;51.058;13.712;2023-05-16T13:23:28;7.93;;;3.07;;
22814;SDS011;11574;51.058;13.712;2023-05-16T13:28:31;5.40;;;2.83;;
22814;SDS011;11574;51.058;13.712;2023-05-16T13:33:34;5.43;;;2.83;;
22814;SDS011;11574;51.058;13.712;2023-05-16T13:38:38;6.90;;;2.83;;
22814;SDS011;11574;51.058;13.712;2023-05-16T13:43:43;6.03;;;2.87;;
22814;SDS011;11574;51.058;13.712;2023-05-16T13:48:46;7.13;;;2.90;;
22814;SDS011;11574;51.058;13.712;2023-05-16T13:53:50;6.13;;;2.80;;
22814;SDS011;11574;51.058;13.712;2023-05-16T13:58:52;9.87;;;3.33;;
22814;SDS011;11574;51.058;13.712;2023-05-16T14:03:54;4.90;;;2.40;;
22814;SDS011;11574;51.058;13.712;2023-05-16T14:08:58;9.03;;;2.83;;
22814;SDS011;11574;51.058;13.712;2023-05-16T14:14:01;6.43;;;2.40;;
22814;SDS011;11574;51.058;13.712;2023-05-16T14:19:04;11.90;;;3.27;;
22814;SDS011;11574;51.058;13.712;2023-05-16T14:24:17;5.20;;;2.57;;
22814;SDS011;11574;51.058;13.712;2023-05-16T14:29:20;6.63;;;2.50;;
22814;SDS011;11574;51.058;13.712;2023-05-16T14:34:23;6.23;;;2.87;;
22814;SDS011;11574;51.058;13.712;2023-05-16T14:39:27;12.23;;;2.90;;
22814;SDS011;11574;51.058;13.712;2023-05-16T14:44:31;13.90;;;3.07;;
22814;SDS011;11574;51.058;13.712;2023-05-16T14:49:35;10.97;;;2.67;;
22814;SDS011;11574;51.058;13.712;2023-05-16T14:54:38;13.47;;;2.73;;
22814;SDS011;11574;51.058;13.712;2023-05-16T14:59:41;12.17;;;2.57;;
22814;SDS011;11574;51.058;13.712;2023-05-16T15:04:43;10.77;;;3.03;;
22814;SDS011;11574;51.058;13.712;2023-05-16T15:09:47;12.10;;;3.10;;
22814;SDS011;11574;51.058;13.712;2023-05-16T15:14:49;8.70;;;2.73;;
22814;SDS011;11574;51.058;13.712;2023-05-16T15:19:52;10.60;;;3.63;;
22814;SDS011;11574;51.058;13.712;2023-05-16T15:24:56;9.70;;;2.47;;
22814;SDS011;11574;51.058;13.712;2023-05-16T15:29:59;9.80;;;3.03;;
22814;SDS011;11574;51.058;13.712;2023-05-16T15:35:01;13.10;;;2.93;;
22814;SDS011;11574;51.058;13.712;2023-05-16T15:40:07;8.00;;;2.30;;
22814;SDS011;11574;51.058;13.712;2023-05-16T15:50:54;7.13;;;2.07;;
22814;SDS011;11574;51.058;13.712;2023-05-16T15:56:03;8.83;;;2.47;;
22814;SDS011;11574;51.058;13.712;2023-05-16T16:01:09;8.37;;;2.33;;
22814;SDS011;11574;51.058;13.712;2023-05-16T16:06:20;7.70;;;2.40;;
22814;SDS011;11574;51.058;13.712;2023-05-16T16:11:32;10.60;;;2.47;;
22814;SDS011;11574;51.058;13.712;2023-05-16T16:16:35;8.03;;;2.23;;
22814;SDS011;11574;51.058;13.712;2023-05-16T16:21:39;7.37;;;1.70;;
22814;SDS011;11574;51.058;13.712;2023-05-16T16:26:47;8.33;;;2.10;;
22814;SDS011;11574;51.058;13.712;2023-05-16T16:31:53;5.77;;;2.23;;
22814;SDS011;11574;51.058;13.712;2023-05-16T16:36:58;10.37;;;2.50;;
22814;SDS011;11574;51.058;13.712;2023-05-16T16:42:06;8.00;;;2.30;;
22814;SDS011;11574;51.058;13.712;2023-05-16T16:47:08;11.23;;;1.90;;
22814;SDS011;11574;51.058;13.712;2023-05-16T16:52:10;6.23;;;2.07;;
22814;SDS011;11574;51.058;13.712;2023-05-16T16:57:14;9.47;;;2.40;;
22814;SDS011;11574;51.058;13.712;2023-05-16T17:02:20;9.70;;;1.97;;
22814;SDS011;11574;51.058;13.712;2023-05-16T17:07:27;7.20;;;2.20;;
22814;SDS011;11574;51.058;13.712;2023-05-16T17:12:35;7.87;;;2.10;;
22814;SDS011;11574;51.058;13.712;2023-05-16T17:17:45;11.57;;;2.80;;
22814;SDS011;11574;51.058;13.712;2023-05-16T17:22:51;8.33;;;3.83;;
22814;SDS011;11574;51.058;13.712;2023-05-16T17:27:55;12.90;;;3.07;;
22814;SDS011;11574;51.058;13.712;2023-05-16T17:32:57;10.63;;;3.03;;
22814;SDS011;11574;51.058;13.712;2023-05-16T17:37:59;8.37;;;2.27;;
22814;SDS011;11574;51.058;13.712;2023-05-16T17:43:03;9.47;;;2.70;;
22814;SDS011;11574;51.058;13.712;2023-05-16T17:48:05;6.63;;;2.50;;
22814;SDS011;11574;51.058;13.712;2023-05-16T17:53:08;13.87;;;3.80;;
22814;SDS011;11574;51.058;13.712;2023-05-16T17:58:11;16.10;;;4.20;;
22814;SDS011;11574;51.058;13.712;2023-05-16T18:03:13;12.60;;;3.17;;
22814;SDS011;11574;51.058;13.712;2023-05-16T18:08:19;7.13;;;3.07;;
22814;SDS011;11574;51.058;13.712;2023-05-16T18:13:23;7.57;;;2.70;;
22814;SDS011;11574;51.058;13.712;2023-05-16T18:18:31;9.80;;;2.67;;
22814;SDS011;11574;51.058;13.712;2023-05-16T18:23:37;11.37;;;2.50;;
22814;SDS011;11574;51.058;13.712;2023-05-16T18:28:41;11.83;;;2.20;;
22814;SDS011;11574;51.058;13.712;2023-05-16T18:33:44;8.73;;;2.20;;
22814;SDS011;11574;51.058;13.712;2023-05-16T18:38:50;8.73;;;2.57;;
22814;SDS011;11574;51.058;13.712;2023-05-16T18:44:01;9.20;;;2.30;;
22814;SDS011;11574;51.058;13.712;2023-05-16T18:49:09;10.37;;;2.33;;
22814;SDS011;11574;51.058;13.712;2023-05-16T18:54:12;9.43;;;2.53;;
22814;SDS011;11574;51.058;13.712;2023-05-16T18:59:24;8.03;;;2.23;;
22814;SDS011;11574;51.058;13.712;2023-05-16T19:04:27;8.93;;;2.63;;
22814;SDS011;11574;51.058;13.712;2023-05-16T19:09:31;8.13;;;2.10;;
22814;SDS011;11574;51.058;13.712;2023-05-16T19:14:35;9.57;;;2.47;;
22814;SDS011;11574;51.058;13.712;2023-05-16T19:19:37;9.23;;;2.67;;
22814;SDS011;11574;51.058;13.712;2023-05-16T19:24:42;13.20;;;2.83;;
22814;SDS011;11574;51.058;13.712;2023-05-16T19:29:46;6.47;;;2.00;;
22814;SDS011;11574;51.058;13.712;2023-05-16T19:34:52;11.13;;;2.60;;
22814;SDS011;11574;51.058;13.712;2023-05-16T19:39:57;8.93;;;2.33;;
22814;SDS011;11574;51.058;13.712;2023-05-16T19:45:01;9.03;;;2.30;;
22814;SDS011;11574;51.058;13.712;2023-05-16T19:50:04;6.37;;;2.43;;
22814;SDS011;11574;51.058;13.712;2023-05-16T19:55:07;8.07;;;2.07;;
22814;SDS011;11574;51.058;13.712;2023-05-16T20:00:11;4.93;;;2.00;;
22814;SDS011;11574;51.058;13.712;2023-05-16T20:05:14;8.80;;;2.50;;
22814;SDS011;11574;51.058;13.712;2023-05-16T20:10:18;10.63;;;1.63;;
22814;SDS011;11574;51.058;13.712;2023-05-16T20:15:22;6.33;;;1.50;;
22814;SDS011;11574;51.058;13.712;2023-05-16T20:20:24;9.03;;;1.87;;
22814;SDS011;11574;51.058;13.712;2023-05-16T20:25:28;8.43;;;1.90;;
22814;SDS011;11574;51.058;13.712;2023-05-16T20:30:34;7.17;;;1.63;;
22814;SDS011;11574;51.058;13.712;2023-05-16T20:35:36;13.80;;;1.70;;
22814;SDS011;11574;51.058;13.712;2023-05-16T20:40:39;10.43;;;1.90;;
22814;SDS011;11574;51.058;13.712;2023-05-16T20:45:43;12.90;;;1.60;;
22814;SDS011;11574;51.058;13.712;2023-05-16T20:50:45;12.20;;;1.93;;
22814;SDS011;11574;51.058;13.712;2023-05-16T20:55:48;10.73;;;2.53;;
22814;SDS011;11574;51.058;13.712;2023-05-16T21:00:51;4.23;;;1.67;;
22814;SDS011;11574;51.058;13.712;2023-05-16T21:05:54;7.93;;;2.20;;
22814;SDS011;11574;51.058;13.712;2023-05-16T21:10:56;6.33;;;1.50;;
22814;SDS011;11574;51.058;13.712;2023-05-16T21:15:59;6.93;;;1.70;;
22814;SDS011;11574;51.058;13.712;2023-05-16T21:21:01;7.87;;;1.60;;
22814;SDS011;11574;51.058;13.712;2023-05-16T21:26:04;10.33;;;1.77;;
22814;SDS011;11574;51.058;13.712;2023-05-16T21:31:07;7.87;;;1.60;;
22814;SDS011;11574;51.058;13.712;2023-05-16T21:36:09;9.07;;;1.40;;
22814;SDS011;11574;51.058;13.712;2023-05-16T21:41:12;5.40;;;1.60;;
22814;SDS011;11574;51.058;13.712;2023-05-16T21:46:15;7.90;;;1.43;;
22814;SDS011;11574;51.058;13.712;2023-05-16T21:51:17;8.80;;;1.93;;
22814;SDS011;11574;51.058;13.712;2023-05-16T21:56:20;5.50;;;1.30;;
22814;SDS011;11574;51.058;13.712;2023-05-16T22:01:23;8.57;;;1.73;;
22814;SDS011;11574;51.058;13.712;2023-05-16T22:06:27;7.30;;;1.93;;
22814;SDS011;11574;51.058;13.712;2023-05-16T22:11:30;6.50;;;1.33;;
22814;SDS011;11574;51.058;13.712;2023-05-16T22:16:33;7.33;;;2.47;;
22814;SDS011;11574;51.058;13.712;2023-05-16T22:21:35;6.57;;;1.53;;
22814;SDS011;11574;51.058;13.712;2023-05-16T22:26:38;3.53;;;1.50;;
22814;SDS011;11574;51.058;13.712;2023-05-16T22:31:42;7.13;;;1.67;;
22814;SDS011;11574;51.058;13.712;2023-05-16T22:36:44;9.70;;;1.97;;
22814;SDS011;11574;51.058;13.712;2023-05-16T22:41:46;4.90;;;1.60;;
22814;SDS011;11574;51.058;13.712;2023-05-16T22:46:50;4.60;;;1.63;;
22814;SDS011;11574;51.058;13.712;2023-05-16T22:51:52;6.20;;;1.50;;
22814;SDS011;11574;51.058;13.712;2023-05-16T22:56:54;9.33;;;1.93;;
22814;SDS011;11574;51.058;13.712;2023-05-16T23:01:58;5.53;;;1.57;;
22814;SDS011;11574;51.058;13.712;2023-05-16T23:07:00;4.37;;;1.40;;
22814;SDS011;11574;51.058;13.712;2023-05-16T23:12:02;7.77;;;1.40;;
22814;SDS011;11574;51.058;13.712;2023-05-16T23:17:06;4.40;;;1.50;;
22814;SDS011;11574;51.058;13.712;2023-05-16T23:22:08;4.77;;;1.23;;
22814;SDS011;11574;51.058;13.712;2023-05-16T23:27:10;8.87;;;1.23;;
22814;SDS011;11574;51.058;13.712;2023-05-16T23:32:14;6.77;;;1.50;;
22814;SDS011;11574;51.058;13.712;2023-05-16T23:37:16;5.63;;;2.10;;
22814;SDS011;11574;51.058;13.712;2023-05-16T23:42:18;7.17;;;1.60;;
22814;SDS011;11574;51.058;13.712;2023-05-16T23:47:22;8.37;;;1.83;;
22814;SDS011;11574;51.058;13.712;2023-05-16T23:52:24;4.90;;;1.40;;
22814;SDS011;11574;51.058;13.712;2023-05-16T23:57:26;3.73;;;1.77;;
